Time;durP1;ratioP1;P1;durP2;ratioP2;P2;SDS_P1;SDS_P2;PMS_P1;PMS_P2;Temp;Humidity;BMP_temperature;BMP_pressure;BME280_temperature;BME280_humidity;BME280_pressure;Samples;Min_cycle;Max_cycle;Signal;HPM_P1;HPM_P2
2023/06/24 00:00:40;;;;;;;15.52;8.65;;;;;;;12.76;100.00;99365.94;4181814;28;20032;-74
2023/06/24 00:02:43;;;;;;;14.10;8.77;;;;;;;12.73;100.00;99359.13;4180029;28;20389;-74
2023/06/24 00:04:43;;;;;;;11.60;7.68;;;;;;;12.70;100.00;99361.88;4178354;28;20086;-74
2023/06/24 00:06:44;;;;;;;13.68;8.15;;;;;;;12.68;100.00;99350.34;4176945;28;20468;-74
2023/06/24 00:08:45;;;;;;;13.48;9.18;;;;;;;12.66;100.00;99353.50;4175022;28;20396;-74
2023/06/24 00:10:46;;;;;;;13.88;8.40;;;;;;;12.67;100.00;99351.50;4185079;28;20699;-74
2023/06/24 00:12:47;;;;;;;13.60;8.63;;;;;;;12.65;100.00;99357.41;4187354;28;20036;-74
2023/06/24 00:14:47;;;;;;;10.32;7.40;;;;;;;12.66;100.00;99353.50;4189862;28;20082;-74
2023/06/24 00:16:52;;;;;;;9.63;7.28;;;;;;;12.59;100.00;99350.59;4186040;28;20045;-74
2023/06/24 00:19:01;;;;;;;16.17;9.32;;;;;;;12.58;100.00;99357.31;4176891;28;20129;-74
2023/06/24 00:21:03;;;;;;;10.55;7.90;;;;;;;12.56;100.00;99365.19;4175877;28;20056;-74
2023/06/24 00:23:03;;;;;;;11.52;8.40;;;;;;;12.47;100.00;99365.44;4187732;28;20037;-74
2023/06/24 00:25:06;;;;;;;15.48;7.65;;;;;;;12.43;100.00;99366.56;4189538;28;20143;-74
2023/06/24 00:27:06;;;;;;;;;;;;;;;12.40;100.00;99367.28;4177667;28;20049;-74
2023/06/24 00:29:07;;;;;;;14.55;7.63;;;;;;;12.38;100.00;99354.56;4174742;28;20489;-74
2023/06/24 00:31:07;;;;;;;13.27;8.32;;;;;;;12.32;100.00;99361.59;4174942;28;20040;-74
2023/06/24 00:33:10;;;;;;;9.98;7.70;;;;;;;12.24;100.00;99370.16;4173885;28;20080;-74
2023/06/24 00:35:12;;;;;;;11.75;7.40;;;;;;;12.17;100.00;99368.06;4174612;28;20052;-74
2023/06/24 00:37:12;;;;;;;12.90;7.95;;;;;;;12.14;100.00;99366.00;4176024;28;20045;-74
2023/06/24 00:39:13;;;;;;;13.00;7.03;;;;;;;12.13;100.00;99367.19;4174161;28;20361;-74
2023/06/24 00:41:13;;;;;;;9.73;7.72;;;;;;;12.09;100.00;99361.56;4175123;28;20041;-74
2023/06/24 00:43:14;;;;;;;12.45;8.65;;;;;;;12.12;100.00;99362.81;4172992;28;20051;-74
2023/06/24 00:45:16;;;;;;;12.07;7.70;;;;;;;12.16;100.00;99373.94;4185557;28;20033;-74
2023/06/24 00:47:16;;;;;;;11.68;7.85;;;;;;;12.11;100.00;99361.19;4175594;28;20091;-74
2023/06/24 00:49:17;;;;;;;12.13;7.15;;;;;;;12.05;100.00;99360.69;4179383;28;20045;-74
2023/06/24 00:51:21;;;;;;;10.27;6.68;;;;;;;11.97;100.00;99369.22;4189287;28;20175;-74
2023/06/24 00:53:24;;;;;;;16.17;8.30;;;;;;;11.89;100.00;99368.28;4174756;28;20412;-74
2023/06/24 00:55:25;;;;;;;11.60;7.90;;;;;;;11.84;100.00;99359.47;4187153;28;20403;-74
2023/06/24 00:57:25;;;;;;;8.75;7.00;;;;;;;11.78;100.00;99356.94;4181196;28;20037;-74
2023/06/24 00:59:29;;;;;;;10.93;7.90;;;;;;;11.78;100.00;99358.94;4189473;28;20047;-74
2023/06/24 01:01:33;;;;;;;9.82;6.82;;;;;;;11.80;100.00;99364.94;4177942;28;20045;-74
2023/06/24 01:03:34;;;;;;;9.52;6.38;;;;;;;11.77;100.00;99352.56;4182404;28;20056;-74
2023/06/24 01:05:35;;;;;;;9.50;7.78;;;;;;;11.75;100.00;99362.41;4183216;28;20519;-74
2023/06/24 01:07:37;;;;;;;11.20;7.45;;;;;;;11.78;100.00;99364.47;4188738;28;20448;-74
2023/06/24 01:09:38;;;;;;;11.93;6.97;;;;;;;11.78;100.00;99373.59;4187703;28;20048;-74
2023/06/24 01:11:38;;;;;;;19.73;7.47;;;;;;;11.78;100.00;99358.94;4187976;28;20090;-74
2023/06/24 01:13:39;;;;;;;14.52;7.50;;;;;;;11.80;100.00;99373.25;4175778;28;20049;-74
2023/06/24 01:15:40;;;;;;;13.27;7.53;;;;;;;11.78;100.00;99379.13;4173047;28;20040;-74
2023/06/24 01:17:53;;;;;;;13.13;7.85;;;;;;;11.78;100.00;99370.81;4185797;28;20041;-74
2023/06/24 01:20:10;;;;;;;13.23;7.63;;;;;;;11.75;100.00;99365.19;4184539;28;20045;-74
2023/06/24 01:22:30;;;;;;;13.70;7.20;;;;;;;11.64;100.00;99358.63;4175987;28;20040;-74
2023/06/24 01:24:44;;;;;;;16.27;7.10;;;;;;;11.60;100.00;99354.97;4172299;28;20485;-74
2023/06/24 01:26:53;;;;;;;17.27;7.20;;;;;;;11.56;100.00;99357.66;4179098;28;20049;-74
2023/06/24 01:29:11;;;;;;;18.33;7.60;;;;;;;11.54;100.00;99351.69;4173463;28;20073;-74
2023/06/24 01:31:27;;;;;;;11.52;6.30;;;;;;;11.46;100.00;99353.50;4173695;28;20037;-74
2023/06/24 01:33:56;;;;;;;17.00;7.35;;;;;;;11.45;100.00;99351.09;4171977;28;20051;-74
2023/06/24 01:35:58;;;;;;;11.60;7.32;;;;;;;11.43;100.00;99342.34;4166719;28;20352;-74
2023/06/24 01:38:03;;;;;;;14.07;7.07;;;;;;;11.39;100.00;99344.22;4177712;28;20127;-74
2023/06/24 01:40:21;;;;;;;14.25;7.35;;;;;;;11.33;100.00;99337.34;4181482;28;20052;-74
2023/06/24 01:42:22;;;;;;;8.68;7.07;;;;;;;11.28;100.00;99344.00;4186415;28;20525;-74
2023/06/24 01:44:27;;;;;;;14.45;7.97;;;;;;;11.26;100.00;99343.56;4172699;28;20043;-74
2023/06/24 01:46:29;;;;;;;15.32;7.72;;;;;;;11.27;100.00;99347.13;4179852;28;20056;-74
2023/06/24 01:48:34;;;;;;;11.07;6.82;;;;;;;11.27;100.00;99341.59;4181924;28;20550;-74
2023/06/24 01:50:36;;;;;;;16.77;6.78;;;;;;;11.25;100.00;99353.00;4173590;28;20090;-74
2023/06/24 01:52:37;;;;;;;18.10;6.50;;;;;;;11.25;100.00;99347.47;4176249;28;20264;-74
2023/06/24 01:54:41;;;;;;;13.38;6.55;;;;;;;11.25;100.00;99342.75;4174000;28;20056;-74
2023/06/24 01:56:43;;;;;;;16.52;7.05;;;;;;;11.26;100.00;99343.56;4182398;28;20040;-74
2023/06/24 01:58:45;;;;;;;11.68;6.70;;;;;;;11.24;100.00;99341.13;4188511;28;20098;-74
2023/06/24 02:00:46;;;;;;;11.57;6.25;;;;;;;11.19;100.00;99346.97;4173250;28;20049;-74
2023/06/24 02:02:47;;;;;;;14.07;6.72;;;;;;;11.16;100.00;99342.13;4172509;28;20063;-74
2023/06/24 02:04:52;;;;;;;15.02;6.80;;;;;;;11.09;100.00;99344.75;4173010;28;20396;-74
2023/06/24 02:06:54;;;;;;;13.73;7.55;;;;;;;11.07;100.00;99336.00;4176475;28;20488;-74
2023/06/24 02:08:58;;;;;;;9.82;7.38;;;;;;;11.01;100.00;99342.19;4176384;28;20024;-74
2023/06/24 02:11:00;;;;;;;16.08;8.27;;;;;;;10.99;100.00;99339.75;4180018;28;20041;-74
2023/06/24 02:13:00;;;;;;;17.70;9.18;;;;;;;11.03;100.00;99337.88;4179701;28;20025;-74
2023/06/24 02:15:03;;;;;;;15.88;8.95;;;;;;;11.08;100.00;99336.78;4172767;28;20063;-74
2023/06/24 02:17:04;;;;;;;;;;;;;;;11.09;100.00;99333.69;4181933;28;20095;-74
2023/06/24 02:19:06;;;;;;;18.60;8.40;;;;;;;11.06;100.00;99328.84;4173184;28;19913;-74
2023/06/24 02:21:06;;;;;;;14.53;7.97;;;;;;;11.06;100.00;99328.03;4172586;28;20037;-74
2023/06/24 02:23:09;;;;;;;12.10;8.55;;;;;;;11.03;100.00;99323.25;4179784;28;20047;-74
2023/06/24 02:25:09;;;;;;;11.35;7.90;;;;;;;11.01;100.00;99322.81;4173600;28;20347;-74
2023/06/24 02:27:12;;;;;;;12.88;7.25;;;;;;;10.97;100.00;99331.81;4180568;28;20474;-74
2023/06/24 02:29:13;;;;;;;13.02;7.75;;;;;;;10.91;100.00;99326.91;4177315;28;20364;-74
2023/06/24 02:31:14;;;;;;;8.00;7.20;;;;;;;10.89;100.00;99326.47;4172642;28;20408;-74
2023/06/24 02:33:15;;;;;;;9.68;6.50;;;;;;;10.83;100.00;99330.66;4172707;28;20124;-74
2023/06/24 02:35:15;;;;;;;8.63;7.13;;;;;;;10.75;100.00;99332.47;4172519;28;20465;-74
2023/06/24 02:37:16;;;;;;;9.75;6.03;;;;;;;10.69;100.00;99326.41;4181293;28;20061;-74
2023/06/24 02:39:16;;;;;;;7.97;6.90;;;;;;;10.65;100.00;99330.22;4184062;28;20123;-74
2023/06/24 02:41:17;;;;;;;19.92;8.77;;;;;;;10.63;100.00;99327.84;4187189;28;20089;-74
2023/06/24 02:43:17;;;;;;;12.32;8.82;;;;;;;10.62;100.00;99337.31;4179243;28;20064;-74
2023/06/24 02:45:18;;;;;;;11.88;9.40;;;;;;;10.55;100.00;99331.59;4179516;28;20052;-74
2023/06/24 02:47:20;;;;;;;15.05;8.57;;;;;;;10.54;100.00;99332.75;4181278;28;20446;-74
2023/06/24 02:49:21;;;;;;;20.65;10.65;;;;;;;10.52;100.00;99342.56;4185663;28;20041;-74
2023/06/24 02:51:22;;;;;;;12.30;8.98;;;;;;;10.48;100.00;99327.84;4172730;28;20033;-74
2023/06/24 02:53:22;;;;;;;18.48;9.35;;;;;;;10.50;100.00;99328.28;4174856;28;20434;-74
2023/06/24 02:55:23;;;;;;;15.40;10.23;;;;;;;10.48;100.00;99325.06;4172412;28;20342;-74
2023/06/24 02:57:25;;;;;;;16.85;11.48;;;;;;;10.48;100.00;99325.06;4179822;28;20053;-74
2023/06/24 02:59:26;;;;;;;19.17;10.60;;;;;;;10.45;100.00;99321.06;4176704;28;20473;-74
2023/06/24 03:01:27;;;;;;;15.45;9.88;;;;;;;10.45;100.00;99326.59;4188486;28;20035;-74
2023/06/24 03:03:28;;;;;;;18.02;10.00;;;;;;;10.44;100.00;99330.53;4184538;28;20045;-74
2023/06/24 03:05:30;;;;;;;10.50;9.23;;;;;;;10.43;100.00;99326.16;4181249;28;20045;-74
2023/06/24 03:07:30;;;;;;;17.58;9.27;;;;;;;10.46;100.00;99336.50;4181342;28;20076;-74
2023/06/24 03:09:34;;;;;;;11.25;7.88;;;;;;;10.50;100.00;99344.88;4173071;28;20371;-74
2023/06/24 03:11:42;;;;;;;11.35;8.02;;;;;;;10.49;100.00;99338.53;4172725;28;20456;-74
2023/06/24 03:13:43;;;;;;;14.05;8.50;;;;;;;10.55;100.00;99353.72;4179511;28;20040;-74
2023/06/24 03:15:43;;;;;;;16.63;9.57;;;;;;;10.58;100.00;99344.69;4186733;28;20037;-74
2023/06/24 03:17:44;;;;;;;17.20;10.38;;;;;;;10.69;100.00;99343.00;4175754;28;20040;-74
2023/06/24 03:19:44;;;;;;;21.15;11.45;;;;;;;10.80;100.00;99346.03;4175777;28;20045;-74
2023/06/24 03:21:44;;;;;;;18.58;11.18;;;;;;;10.80;100.00;99348.81;4175657;28;20095;-74
2023/06/24 03:23:45;;;;;;;18.92;10.15;;;;;;;10.86;100.00;99352.13;4179049;28;20065;-74
2023/06/24 03:25:45;;;;;;;13.38;9.73;;;;;;;10.86;100.00;99344.59;4175347;28;20455;-74
2023/06/24 03:27:45;;;;;;;16.77;9.30;;;;;;;10.90;100.00;99353.00;4180366;28;20069;-74
2023/06/24 03:29:46;;;;;;;19.38;10.30;;;;;;;10.90;100.00;99347.44;4188694;28;20132;-74
2023/06/24 03:31:46;;;;;;;15.52;8.77;;;;;;;10.93;100.00;99344.78;4187219;28;20293;-74
2023/06/24 03:33:46;;;;;;;13.10;7.95;;;;;;;10.94;100.00;99351.94;4188364;28;20068;-74
2023/06/24 03:35:47;;;;;;;12.15;8.45;;;;;;;10.97;100.00;99353.16;4180363;28;20132;-74
2023/06/24 03:37:47;;;;;;;15.05;8.70;;;;;;;10.98;100.00;99361.09;4188339;28;20127;-74
2023/06/24 03:39:47;;;;;;;16.52;9.32;;;;;;;10.93;100.00;99352.28;4188335;28;20040;-74
2023/06/24 03:41:47;;;;;;;12.75;8.15;;;;;;;10.96;100.00;99362.63;4182727;28;20041;-74
2023/06/24 03:43:48;;;;;;;12.48;7.75;;;;;;;10.95;100.00;99370.13;4184737;28;20032;-74
2023/06/24 03:45:48;;;;;;;15.45;7.63;;;;;;;10.92;100.00;99362.56;4183508;28;20379;-74
2023/06/24 03:47:49;;;;;;;9.95;7.65;;;;;;;10.92;100.00;99356.19;4174257;28;20047;-74
2023/06/24 03:49:49;;;;;;;10.60;7.60;;;;;;;10.87;100.00;99357.28;4187887;28;20115;-74
2023/06/24 03:51:49;;;;;;;10.63;6.82;;;;;;;10.88;100.00;99355.31;4180374;28;20491;-74
2023/06/24 03:53:51;;;;;;;10.98;7.10;;;;;;;10.92;100.00;99359.78;4174335;28;20045;-74
2023/06/24 03:55:51;;;;;;;13.70;7.82;;;;;;;10.96;100.00;99363.44;4176041;28;20198;-74
2023/06/24 03:57:51;;;;;;;12.15;8.65;;;;;;;11.06;100.00;99366.81;4188705;28;20040;-74
2023/06/24 03:59:52;;;;;;;15.55;8.85;;;;;;;11.11;100.00;99372.91;4188217;28;20064;-74
2023/06/24 04:01:52;;;;;;;12.98;8.13;;;;;;;11.19;100.00;99380.22;4178105;28;20135;-74
2023/06/24 04:03:52;;;;;;;15.65;7.65;;;;;;;11.22;100.00;99371.16;4176844;28;20072;-74
2023/06/24 04:05:57;;;;;;;10.13;7.15;;;;;;;11.32;100.00;99374.53;4184168;28;20504;-74
2023/06/24 04:07:57;;;;;;;8.68;7.13;;;;;;;11.38;100.00;99370.31;4187720;28;20307;-74
2023/06/24 04:09:58;;;;;;;17.25;8.55;;;;;;;11.44;100.00;99378.00;4174632;28;20047;-74
2023/06/24 04:11:58;;;;;;;13.23;7.95;;;;;;;11.51;100.00;99372.63;4180103;28;20127;-74
2023/06/24 04:13:58;;;;;;;13.35;7.88;;;;;;;11.53;100.00;99372.25;4178178;28;20103;-74
2023/06/24 04:15:59;;;;;;;10.70;7.80;;;;;;;11.59;100.00;99370.81;4180592;28;20052;-74
2023/06/24 04:17:59;;;;;;;15.35;8.18;;;;;;;11.60;100.00;99366.06;4173984;28;20056;-74
2023/06/24 04:19:59;;;;;;;12.32;6.95;;;;;;;11.65;100.00;99374.06;4186756;28;20468;-74
2023/06/24 04:22:00;;;;;;;12.50;7.45;;;;;;;11.67;100.00;99380.88;4178670;28;20128;-74
2023/06/24 04:24:00;;;;;;;9.88;7.30;;;;;;;11.70;100.00;99382.13;4179856;28;20091;-74
2023/06/24 04:26:00;;;;;;;10.82;7.63;;;;;;;11.74;100.00;99386.56;4174771;28;20048;-74
2023/06/24 04:28:01;;;;;;;13.18;7.93;;;;;;;11.79;100.00;99377.97;4173179;28;20470;-74
2023/06/24 04:30:02;;;;;;;11.80;7.22;;;;;;;11.88;100.00;99388.06;4181716;28;20037;-76
2023/06/24 04:32:03;;;;;;;12.93;8.63;;;;;;;11.94;100.00;99384.63;4178769;28;20473;-75
2023/06/24 04:34:03;;;;;;;10.88;8.82;;;;;;;12.01;100.00;99384.78;4178513;28;20052;-75
2023/06/24 04:36:04;;;;;;;11.32;9.20;;;;;;;12.08;100.00;99393.25;4174725;28;20124;-75
2023/06/24 04:38:04;;;;;;;11.68;9.05;;;;;;;12.15;100.00;99384.25;4173853;28;20030;-75
2023/06/24 04:40:05;;;;;;;13.15;9.52;;;;;;;12.23;100.00;99394.31;4174853;28;20493;-75
2023/06/24 04:42:06;;;;;;;10.43;8.25;;;;;;;12.32;100.00;99400.44;4179034;28;20056;-75
2023/06/24 04:44:06;;;;;;;11.50;8.68;;;;;;;12.42;100.00;99398.25;4178861;28;20083;-75
2023/06/24 04:46:07;;;;;;;10.93;7.43;;;;;;;12.48;100.00;99397.56;4182751;28;20087;-75
2023/06/24 04:48:07;;;;;;;11.38;7.93;;;;;;;12.57;100.00;99391.78;4183414;28;20114;-75
2023/06/24 04:50:10;;;;;;;12.70;7.90;;;;;;;12.67;100.00;99398.72;4174385;28;20040;-75
2023/06/24 04:52:12;;;;;;;10.77;7.88;;;;;;;12.78;100.00;99400.50;4174718;28;20021;-75
2023/06/24 04:54:12;;;;;;;9.45;7.22;;;;;;;12.88;100.00;99407.41;4186510;28;20063;-75
2023/06/24 04:56:13;;;;;;;11.27;8.00;;;;;;;12.97;100.00;99412.69;4176807;28;20436;-75
2023/06/24 04:58:13;;;;;;;12.07;8.43;;;;;;;13.07;100.00;99406.50;4175370;28;20021;-74
2023/06/24 05:00:13;;;;;;;11.57;8.50;;;;;;;13.17;100.00;99408.69;4190378;28;20033;-75
2023/06/24 05:02:14;;;;;;;14.00;9.32;;;;;;;13.25;100.00;99407.66;4188096;28;20028;-74
2023/06/24 05:04:14;;;;;;;14.77;8.63;;;;;;;13.35;100.00;99409.78;4186514;28;20119;-75
2023/06/24 05:06:14;;;;;;;13.57;9.23;;;;;;;13.44;100.00;99409.50;4190155;28;20060;-74
2023/06/24 05:08:15;;;;;;;14.00;8.50;;;;;;;13.54;100.00;99408.84;4187187;28;20755;-75
2023/06/24 05:10:15;;;;;;;15.90;8.48;;;;;;;13.60;100.00;99401.00;4178139;28;20358;-74
2023/06/24 05:12:15;;;;;;;11.95;8.75;;;;;;;13.70;100.00;99409.50;4187778;28;20032;-75
2023/06/24 05:14:16;;;;;;;10.05;8.73;;;;;;;13.76;100.00;99409.97;4181257;28;20251;-74
2023/06/24 05:16:16;;;;;;;13.35;10.15;;;;;;;13.76;100.00;99415.53;4174977;28;20036;-74
2023/06/24 05:18:17;;;;;;;14.93;8.63;;;;;;;13.84;100.00;99408.09;4172709;28;20414;-75
2023/06/24 05:20:17;;;;;;;14.63;9.32;;;;;;;13.91;100.00;99408.19;4184600;28;20025;-75
2023/06/24 05:22:18;;;;;;;14.15;8.65;;;;;;;13.98;100.00;99416.59;4177043;28;20457;-75
2023/06/24 05:24:18;;;;;;;14.43;9.10;;;;;;;14.08;100.00;99412.38;4173798;28;20222;-74
2023/06/24 05:26:18;;;;;;;12.27;8.85;;;;;;;14.17;100.00;99424.81;4188776;28;20115;-74
2023/06/24 05:28:19;;;;;;;16.42;9.05;;;;;;;14.22;100.00;99418.09;4186747;28;20024;-74
2023/06/24 05:30:19;;;;;;;15.50;9.02;;;;;;;14.30;100.00;99419.78;4187685;28;20036;-74
2023/06/24 05:32:20;;;;;;;11.68;8.25;;;;;;;14.36;100.00;99420.25;4188343;28;20036;-74
2023/06/24 05:34:20;;;;;;;15.50;9.30;;;;;;;14.41;100.00;99417.13;4177763;28;20834;-74
2023/06/24 05:36:20;;;;;;;15.65;8.95;;;;;;;14.51;100.00;99416.47;4173717;28;20479;-75
2023/06/24 05:38:21;;;;;;;15.60;9.30;;;;;;;14.59;100.00;99415.38;4176934;28;20087;-75
2023/06/24 05:40:21;;;;;;;13.20;9.13;;;;;;;14.66;100.00;99415.44;4175688;28;20979;-75
2023/06/24 05:42:22;;;;;;;16.20;9.13;;;;;;;14.74;100.00;99416.31;4173581;28;20076;-75
2023/06/24 05:44:23;;;;;;;19.75;9.48;;;;;;;14.77;100.00;99412.75;4178181;28;20075;-75
2023/06/24 05:46:23;;;;;;;14.63;9.38;;;;;;;14.86;100.00;99416.81;4173561;28;20025;-75
2023/06/24 05:48:23;;;;;;;15.65;9.70;;;;;;;14.94;100.00;99417.69;4175221;28;20082;-74
2023/06/24 05:50:24;;;;;;;15.32;9.32;;;;;;;15.04;100.00;99428.13;4182925;28;20525;-75
2023/06/24 05:52:24;;;;;;;16.52;10.73;;;;;;;15.11;100.00;99433.75;4172965;28;20037;-75
2023/06/24 05:54:25;;;;;;;15.40;10.20;;;;;;;15.18;100.00;99435.81;4182462;28;20060;-74
2023/06/24 05:56:26;;;;;;;15.48;8.35;;;;;;;15.23;100.00;99429.88;4187319;28;20025;-75
2023/06/24 05:58:26;;;;;;;10.30;7.65;;;;;;;15.27;100.00;99430.69;4186369;28;20465;-75
2023/06/24 06:00:26;;;;;;;14.35;8.63;;;;;;;15.36;100.00;99430.38;4179737;28;20472;-74
2023/06/24 06:02:26;;;;;;;12.38;8.43;;;;;;;15.47;100.00;99425.66;4172848;28;20115;-74
2023/06/24 06:04:28;;;;;;;13.77;8.73;;;;;;;15.53;100.00;99424.09;4172333;28;20107;-75
2023/06/24 06:06:28;;;;;;;17.92;10.30;;;;;;;15.61;100.00;99428.56;4173006;28;20048;-75
2023/06/24 06:08:28;;;;;;;16.60;9.80;;;;;;;15.68;100.00;99434.19;4173159;28;20492;-74
2023/06/24 06:10:29;;;;;;;12.95;8.45;;;;;;;15.70;100.00;99431.03;4177052;28;20051;-74
2023/06/24 06:12:29;;;;;;;16.48;8.20;;;;;;;15.74;100.00;99434.66;4177075;28;20049;-74
2023/06/24 06:14:29;;;;;;;15.38;9.18;;;;;;;15.78;100.00;99435.44;4177210;28;20998;-75
2023/06/24 06:16:30;;;;;;;13.75;9.30;;;;;;;15.85;100.00;99427.13;4175403;28;20120;-75
2023/06/24 06:18:30;;;;;;;8.48;7.50;;;;;;;15.91;100.00;99433.16;4174805;28;20055;-75
2023/06/24 06:20:30;;;;;;;11.70;7.53;;;;;;;16.02;100.00;99422.81;4174222;28;20416;-74
2023/06/24 06:22:32;;;;;;;11.57;7.65;;;;;;;16.15;100.00;99431.66;4174720;28;20137;-74
2023/06/24 06:24:32;;;;;;;13.98;8.95;;;;;;;16.32;100.00;99428.13;4169892;28;20056;-74
2023/06/24 06:26:32;;;;;;;12.35;7.57;;;;;;;16.43;100.00;99428.16;4168865;28;20060;-74
2023/06/24 06:28:32;;;;;;;15.80;8.98;;;;;;;16.47;100.00;99435.38;4094088;28;20063;-74
2023/06/24 06:30:33;;;;;;;14.20;9.35;;;;;;;16.50;100.00;99439.38;4180588;28;20052;-75
2023/06/24 06:32:33;;;;;;;12.60;9.30;;;;;;;16.57;100.00;99436.59;4176777;28;20040;-75
2023/06/24 06:34:33;;;;;;;17.77;9.27;;;;;;;16.61;100.00;99426.22;4172989;28;20142;-75
2023/06/24 06:36:34;;;;;;;13.50;9.77;;;;;;;16.71;100.00;99430.25;4178480;28;20048;-75
2023/06/24 06:38:34;;;;;;;14.07;9.35;;;;;;;16.73;100.00;99430.69;4176605;28;20048;-74
2023/06/24 06:40:35;;;;;;;14.48;8.32;;;;;;;16.80;100.00;99425.91;4174377;28;20261;-74
2023/06/24 06:42:35;;;;;;;10.50;8.57;;;;;;;16.90;100.00;99429.91;4171722;28;20061;-74
2023/06/24 06:44:35;;;;;;;9.88;8.10;;;;;;;17.00;100.00;99428.31;4176244;28;20033;-74
2023/06/24 06:46:36;;;;;;;11.38;8.35;;;;;;;17.07;100.00;99425.53;4175798;28;20045;-74
2023/06/24 06:48:36;;;;;;;12.27;8.18;;;;;;;17.22;100.00;99426.34;4179205;28;20041;-74
2023/06/24 06:50:36;;;;;;;10.45;7.65;;;;;;;17.23;100.00;99423.13;4176976;28;20484;-74
2023/06/24 06:52:38;;;;;;;9.80;7.07;;;;;;;17.34;100.00;99426.72;4175043;28;20044;-74
2023/06/24 06:54:38;;;;;;;10.68;7.63;;;;;;;17.38;100.00;99423.94;4176146;28;20045;-74
2023/06/24 06:56:39;;;;;;;11.20;7.70;;;;;;;17.46;100.00;99421.91;4181133;28;20041;-74
2023/06/24 06:58:39;;;;;;;9.77;7.50;;;;;;;17.52;100.00;99434.28;4186616;28;20366;-74
2023/06/24 07:00:40;;;;;;;9.95;6.60;;;;;;;17.58;100.00;99418.69;4174385;28;20052;-74
2023/06/24 07:02:40;;;;;;;11.35;7.70;;;;;;;17.56;100.00;99423.91;4177443;28;20437;-74
2023/06/24 07:04:40;;;;;;;8.73;6.85;;;;;;;17.61;100.00;99427.06;4176090;28;20052;-74
2023/06/24 07:06:41;;;;;;;13.43;7.03;;;;;;;17.66;100.00;99423.88;4182680;28;20131;-74
2023/06/24 07:08:41;;;;;;;8.25;6.63;;;;;;;17.65;100.00;99421.47;4180543;28;20110;-74
2023/06/24 07:10:41;;;;;;;9.27;6.85;;;;;;;17.71;100.00;99433.06;4175572;28;20037;-74
2023/06/24 07:12:42;;;;;;;10.43;6.90;;;;;;;17.77;100.00;99431.47;4184497;28;20480;-74
2023/06/24 07:14:42;;;;;;;13.10;7.05;;;;;;;17.77;100.00;99426.66;4179435;28;20067;-74
2023/06/24 07:16:42;;;;;;;6.97;6.20;;;;;;;17.84;100.00;99437.84;4177635;28;20465;-74
2023/06/24 07:18:43;;;;;;;9.25;7.10;;;;;;;17.89;100.00;99428.25;4186432;28;20506;-74
2023/06/24 07:20:43;;;;;;;8.60;6.80;;;;;;;17.95;100.00;99432.22;4184254;28;20041;-74
2023/06/24 07:22:43;;;;;;;9.57;6.30;;;;;;;18.03;100.00;99424.59;4182213;28;20493;-74
2023/06/24 07:24:44;;;;;;;8.80;6.53;;;;;;;18.02;100.00;99435.00;4189343;28;20044;-74
2023/06/24 07:26:44;;;;;;;9.00;6.55;;;;;;;18.01;100.00;99430.59;4190084;28;20361;-74
2023/06/24 07:28:44;;;;;;;9.73;7.25;;;;;;;18.06;100.00;99421.00;4184314;28;20033;-74
2023/06/24 07:30:45;;;;;;;12.68;6.65;;;;;;;18.13;100.00;99426.59;4180607;28;20045;-74
2023/06/24 07:32:45;;;;;;;9.18;5.35;;;;;;;18.18;100.00;99426.16;4176382;28;20068;-74
2023/06/24 07:34:45;;;;;;;7.72;5.93;;;;;;;18.25;100.00;99434.53;4178245;28;20051;-74
2023/06/24 07:36:46;;;;;;;8.48;6.03;;;;;;;18.38;100.00;99435.66;4180445;28;20675;-74
2023/06/24 07:38:46;;;;;;;9.15;6.35;;;;;;;18.29;100.00;99440.09;4175672;28;20056;-74
2023/06/24 07:40:46;;;;;;;7.03;6.20;;;;;;;18.35;100.00;99424.47;4179904;28;20772;-74
2023/06/24 07:42:47;;;;;;;7.30;6.25;;;;;;;18.45;100.00;99427.25;4178847;28;20405;-74
2023/06/24 07:44:48;;;;;;;9.65;6.53;;;;;;;18.44;100.00;99424.81;4175026;28;20280;-74
2023/06/24 07:46:50;;;;;;;7.55;6.10;;;;;;;18.53;100.00;99427.97;4180561;28;20063;-74
2023/06/24 07:48:51;;;;;;;;;;;;;;;18.52;100.00;99431.97;4179118;28;20086;-74
2023/06/24 07:50:51;;;;;;;7.23;5.83;;;;;;;18.61;100.00;99423.91;4179280;28;20597;-74
2023/06/24 07:52:51;;;;;;;7.07;6.10;;;;;;;18.67;100.00;99427.13;4180082;28;20345;-74
2023/06/24 07:54:52;;;;;;;7.13;5.75;;;;;;;18.60;100.00;99427.13;4177241;28;20041;-74
2023/06/24 07:56:53;;;;;;;8.23;5.50;;;;;;;18.73;100.00;99429.09;4177679;28;20106;-75
2023/06/24 07:58:53;;;;;;;6.60;5.68;;;;;;;18.79;100.00;99430.28;4134417;27;20042;-74
2023/06/24 08:00:53;;;;;;;7.72;5.22;;;;;;;18.83;100.00;99424.63;4181911;28;20048;-74
2023/06/24 08:02:55;;;;;;;8.95;6.15;;;;;;;18.93;100.00;99426.56;4173695;28;20032;-74
2023/06/24 08:04:55;;;;;;;8.20;6.00;;;;;;;18.96;100.00;99427.75;4175117;28;20080;-74
2023/06/24 08:06:56;;;;;;;9.93;6.15;;;;;;;19.02;100.00;99423.28;4184619;28;20044;-74
2023/06/24 08:08:56;;;;;;;9.45;6.60;;;;;;;19.09;100.00;99431.66;4189249;28;20098;-74
2023/06/24 08:10:56;;;;;;;10.02;6.88;;;;;;;18.97;100.00;99430.13;4177388;28;20102;-74
2023/06/24 08:12:57;;;;;;;8.82;6.43;;;;;;;18.95;100.00;99431.75;4179745;28;20127;-74
2023/06/24 08:14:57;;;;;;;7.15;6.07;;;;;;;18.98;100.00;99426.13;4180765;28;20037;-74
2023/06/24 08:16:57;;;;;;;7.72;6.15;;;;;;;19.09;100.00;99426.84;4179229;28;20048;-74
2023/06/24 08:18:58;;;;;;;7.10;6.38;;;;;;;19.07;100.00;99426.44;4174977;28;20123;-74
2023/06/24 08:20:58;;;;;;;9.52;6.78;;;;;;;19.03;100.00;99422.06;4175173;28;20048;-74
2023/06/24 08:22:58;;;;;;;8.48;6.00;;;;;;;19.00;100.00;99425.72;4173914;28;20041;-74
2023/06/24 08:24:58;;;;;;;10.55;6.25;;;;;;;19.05;100.00;99422.47;4182033;28;20045;-74
2023/06/24 08:26:59;;;;;;;11.18;6.18;;;;;;;19.15;100.00;99429.22;4177006;28;20083;-74
2023/06/24 08:28:59;;;;;;;7.93;6.35;;;;;;;19.15;100.00;99432.81;4174372;28;20025;-74
2023/06/24 08:31:00;;;;;;;7.43;6.13;;;;;;;19.17;100.00;99421.97;4173980;28;20487;-74
2023/06/24 08:33:00;;;;;;;8.80;5.70;;;;;;;19.30;100.00;99427.88;4174092;28;20392;-74
2023/06/24 08:35:00;;;;;;;10.30;6.55;;;;;;;19.41;100.00;99428.56;4172999;28;20052;-75
2023/06/24 08:37:01;;;;;;;7.85;6.32;;;;;;;19.48;100.00;99424.91;4174911;28;20041;-74
2023/06/24 08:39:01;;;;;;;10.07;7.15;;;;;;;19.54;100.00;99426.84;4174197;28;20221;-74
2023/06/24 08:41:02;;;;;;;12.43;7.85;;;;;;;19.62;100.00;99420.00;4174137;28;20129;-74
2023/06/24 08:43:02;;;;;;;7.85;6.15;;;;;;;19.64;100.00;99425.97;4173490;28;20147;-74
2023/06/24 08:45:03;;;;;;;8.85;6.35;;;;;;;19.64;100.00;99416.75;4174960;28;20037;-74
2023/06/24 08:47:04;;;;;;;6.72;5.57;;;;;;;19.66;100.00;99419.94;4174468;28;20033;-74
2023/06/24 08:49:19;;;;;;;8.38;6.20;;;;;;;19.56;98.27;99415.22;4174399;28;20040;-74
2023/06/24 08:51:27;;;;;;;7.63;5.10;;;;;;;19.70;100.00;99419.94;4182702;28;20446;-74
2023/06/24 08:53:28;;;;;;;7.07;5.68;;;;;;;19.73;97.62;99425.50;4180879;28;20048;-74
2023/06/24 08:55:31;;;;;;;6.38;5.30;;;;;;;19.87;98.95;99414.13;4182200;28;20044;-74
2023/06/24 08:57:31;;;;;;;11.10;5.57;;;;;;;19.91;99.55;99412.03;4178274;28;20474;-74
2023/06/24 08:59:34;;;;;;;7.03;5.28;;;;;;;20.05;95.76;99421.53;4180317;28;20037;-74
2023/06/24 09:01:34;;;;;;;7.30;4.70;;;;;;;20.04;96.36;99414.34;4176510;28;20121;-74
2023/06/24 09:03:35;;;;;;;6.43;5.65;;;;;;;19.98;95.22;99405.56;4179988;28;20127;-74
2023/06/24 09:05:35;;;;;;;8.25;5.65;;;;;;;19.99;99.36;99406.34;4173462;28;20171;-74
2023/06/24 09:07:36;;;;;;;8.52;5.18;;;;;;;20.13;100.00;99415.41;4182699;28;20045;-74
2023/06/24 09:09:47;;;;;;;11.95;5.55;;;;;;;20.25;99.94;99410.44;4188007;28;20512;-74
2023/06/24 09:11:55;;;;;;;8.43;5.53;;;;;;;20.30;97.41;99413.59;4182601;28;20048;-73
2023/06/24 09:13:59;;;;;;;6.72;5.25;;;;;;;20.24;99.17;99414.47;4181352;28;20049;-74
2023/06/24 09:15:59;;;;;;;7.85;6.05;;;;;;;20.30;99.07;99401.56;4179331;28;20095;-73
2023/06/24 09:18:00;;;;;;;9.07;5.90;;;;;;;20.32;100.00;99405.53;4173899;28;20072;-74
2023/06/24 09:20:07;;;;;;;12.18;5.95;;;;;;;20.41;99.14;99410.63;4174183;28;20072;-74